Andover, CT

2:43 AM EDT on April 27, 2015 (GMT -0400)
Hartford-brainard | | Change Station
CLOSE
Current Station
Airport
Location: Hartford,
Elevation: 16 ft
Nearby Weather Stations

Elev 16 ft 41.74 °N, 72.65 °W | Updated 50 minutes ago

Overcast
Overcast
50 °F
Feels Like 50 °F
N
6
Wind Variable Wind from Variable

Today
High -- | Low -- °F
--% Chance of Precip.
Yesterday
High -- | Low -- °F
Precip. -- in
5:51 AM 7:43 PM
Waxing Gibbous, 62% visible
Pressure 29.65 in
Visibility 10.0 miles
Clouds Overcast 8000 ft
Dew Point 31 °F
Humidity 48%
Rainfall 0.00 in
Snow Depth Not available.
UV 0 out of 12
Pollen 10.30 out of 12
Air Quality Not available.
Flu Activity Widespread
METAR KHFD 270553Z VRB05KT 10SM OVC080 10/M01 A2965 RMK AO2 SLP040 T01001006 10128 20100 56002

More Conditions Fewer Conditions

Pressure 29.65 in
Visibility 10.0 miles
Clouds Overcast 8000 ft
Dew Point 31 °F
Humidity 48%
Rainfall 0.00 in
Snow Depth Not available.
UV 0 out of 12
Pollen 10.30 out of 12
Air Quality Not available.
Flu Activity Widespread
METAR KHFD 270553Z VRB05KT 10SM OVC080 10/M01 A2965 RMK AO2 SLP040 T01001006 10128 20100 56002

More Conditions Fewer Conditions

10-Day Weather Forecast

Almanac

Astronomy

Apr. 27, 2015 Rise Set
Actual Time
Civil Twilight
Nautical Twilight
Astronomical Twilight
Moon
Length of Visible Light
Length of Day
Tomorrow will be .
, % of the Moon is Illuminated

Today's Extremes

State Highs State Lows

Community

WunderPhotos

Upload Photos

1,817,267 photos uploaded!

WunderBlogs® & News

Nearby

Air Quality

  Air Quality AQ Index Pollutant
Not available.

Snow Depth

Station Depth Elevation

Earthquake Activity

City Distance Mag. Time & Date
Minimum magnitude displayed is 2.5.

Coastal Water Temperatures

Place Temperature

Stations

Nearby Weather Stations

Station Location Temp. Windchill Dew Point Humidity Wind Precip. Elev Updated Type